createdAt,value
2023-04-04T00:00:11.653Z,6.30
2023-04-04T00:02:45.717Z,6.50
2023-04-04T00:05:14.693Z,5.90
2023-04-04T00:07:45.729Z,5.00
2023-04-04T00:10:14.199Z,4.60
2023-04-04T00:12:43.535Z,5.30
2023-04-04T00:15:11.941Z,4.80
2023-04-04T00:17:47.158Z,5.10
2023-04-04T00:20:15.361Z,4.90
2023-04-04T00:22:45.427Z,5.10
2023-04-04T00:25:14.649Z,5.10
2023-04-04T00:27:42.739Z,5.10
2023-04-04T00:30:12.734Z,4.40
2023-04-04T00:32:41.608Z,5.30
2023-04-04T00:35:10.013Z,5.10
2023-04-04T00:37:39.270Z,5.20
2023-04-04T00:40:08.657Z,5.20
2023-04-04T00:42:37.727Z,4.70
2023-04-04T00:45:09.393Z,5.30
2023-04-04T00:47:37.618Z,5.60
2023-04-04T00:50:08.062Z,5.00
2023-04-04T00:52:36.391Z,5.00
2023-04-04T00:55:05.283Z,5.50
2023-04-04T00:57:34.258Z,5.60
2023-04-04T01:00:05.585Z,5.30
2023-04-04T01:02:37.439Z,6.50
2023-04-04T01:05:07.105Z,6.00
2023-04-04T01:07:39.253Z,6.10
2023-04-04T01:10:09.558Z,5.70
2023-04-04T01:12:38.370Z,4.80
2023-04-04T01:15:07.655Z,4.90
2023-04-04T01:17:37.771Z,4.00
2023-04-04T01:20:14.759Z,4.60
2023-04-04T01:22:54.797Z,4.20
2023-04-04T01:25:34.069Z,4.40
2023-04-04T01:28:09.810Z,4.80
2023-04-04T01:30:38.910Z,5.00
2023-04-04T01:33:43.486Z,4.80
2023-04-04T01:37:02.099Z,5.10
2023-04-04T01:39:35.935Z,4.60
2023-04-04T01:42:05.410Z,4.30
2023-04-04T01:44:35.982Z,3.40
2023-04-04T01:47:07.427Z,4.40
2023-04-04T01:49:39.229Z,4.10
2023-04-04T01:52:07.677Z,4.30
2023-04-04T01:54:37.306Z,4.50
2023-04-04T01:57:05.557Z,5.20
2023-04-04T01:59:36.445Z,5.10
2023-04-04T02:02:05.388Z,4.40
2023-04-04T02:04:34.524Z,4.30
2023-04-04T02:07:05.006Z,3.80
2023-04-04T02:09:34.212Z,4.00
2023-04-04T02:12:03.240Z,5.20
2023-04-04T02:14:31.809Z,4.10
2023-04-04T02:17:00.701Z,4.20
2023-04-04T02:19:29.191Z,4.40
2023-04-04T02:22:01.180Z,4.50
2023-04-04T02:24:29.842Z,4.20
2023-04-04T02:26:57.825Z,4.40
2023-04-04T02:29:27.306Z,4.30
2023-04-04T02:31:56.088Z,4.50
2023-04-04T02:34:24.129Z,4.00
2023-04-04T02:36:53.330Z,4.30
2023-04-04T02:39:21.937Z,4.10
2023-04-04T02:41:52.670Z,4.00
2023-04-04T02:44:20.795Z,4.20
2023-04-04T02:46:56.093Z,4.30
2023-04-04T02:49:29.802Z,3.70
2023-04-04T02:51:58.628Z,4.10
2023-04-04T02:54:28.935Z,4.00
2023-04-04T02:56:57.069Z,3.70
2023-04-04T02:59:26.161Z,4.90
2023-04-04T03:01:54.989Z,4.20
2023-04-04T03:04:23.544Z,4.00
2023-04-04T03:06:52.537Z,3.40
2023-04-04T03:09:20.742Z,3.40
2023-04-04T03:11:50.322Z,3.50
2023-04-04T03:14:26.837Z,3.40
2023-04-04T03:16:56.929Z,3.60
2023-04-04T03:19:25.504Z,3.40
2023-04-04T03:21:54.066Z,4.20
2023-04-04T03:24:22.932Z,3.60
2023-04-04T03:26:54.659Z,3.70
2023-04-04T03:29:22.783Z,3.90
2023-04-04T03:31:51.051Z,4.00
2023-04-04T03:34:19.592Z,4.00
2023-04-04T03:36:53.927Z,3.80
2023-04-04T03:39:22.873Z,3.80
2023-04-04T03:41:52.092Z,3.10
2023-04-04T03:44:19.963Z,3.10
2023-04-04T03:46:47.954Z,3.80
2023-04-04T03:49:16.413Z,3.90
2023-04-04T03:51:44.704Z,4.20
2023-04-04T03:54:12.862Z,3.70
2023-04-04T03:56:44.123Z,3.50
2023-04-04T03:59:12.749Z,3.40
2023-04-04T04:01:41.218Z,3.30
2023-04-04T04:04:11.778Z,3.30
2023-04-04T04:06:44.007Z,3.60
2023-04-04T04:09:12.679Z,3.90
2023-04-04T04:11:40.997Z,3.20
2023-04-04T04:14:09.234Z,3.90
2023-04-04T04:16:41.812Z,3.30
2023-04-04T04:19:10.939Z,3.80
2023-04-04T04:24:10.596Z,3.30
2023-04-04T04:26:38.760Z,3.40
2023-04-04T04:29:07.790Z,3.50
2023-04-04T04:31:36.222Z,3.40
2023-04-04T04:34:08.871Z,4.00
2023-04-04T04:36:38.705Z,4.30
2023-04-04T04:39:26.523Z,4.00
2023-04-04T04:42:13.330Z,4.10
2023-04-04T04:44:49.805Z,4.10
2023-04-04T04:47:18.230Z,4.20
2023-04-04T04:49:49.856Z,4.50
2023-04-04T04:52:20.950Z,4.20
2023-04-04T04:54:56.094Z,4.60
2023-04-04T04:59:54.833Z,4.10
2023-04-04T05:02:28.254Z,4.30
2023-04-04T05:04:57.723Z,4.30
2023-04-04T05:07:26.353Z,4.20
2023-04-04T05:10:01.153Z,4.30
2023-04-04T05:12:29.575Z,4.00
2023-04-04T05:14:58.253Z,4.40
2023-04-04T05:17:27.041Z,5.60
2023-04-04T05:19:56.779Z,4.90
2023-04-04T05:22:25.098Z,6.20
2023-04-04T05:24:53.514Z,6.00
2023-04-04T05:27:24.665Z,5.10
2023-04-04T05:29:57.812Z,4.40
2023-04-04T05:32:27.234Z,4.30
2023-04-04T05:35:05.575Z,4.40
2023-04-04T05:37:39.396Z,4.60
2023-04-04T05:40:13.393Z,4.70
2023-04-04T05:42:44.915Z,4.60
2023-04-04T05:45:16.909Z,4.90
2023-04-04T05:47:45.714Z,5.30
2023-04-04T05:50:15.014Z,5.60
2023-04-04T05:52:44.251Z,6.10
2023-04-04T05:55:13.977Z,6.10
2023-04-04T05:57:52.148Z,5.70
2023-04-04T06:00:25.434Z,4.60
2023-04-04T06:03:13.896Z,4.50
2023-04-04T06:05:44.494Z,5.80
2023-04-04T06:08:14.577Z,6.40
2023-04-04T06:10:43.056Z,6.30
2023-04-04T06:13:11.148Z,5.70
2023-04-04T06:15:40.483Z,4.60
2023-04-04T06:18:08.725Z,4.10
2023-04-04T06:20:38.328Z,4.10
2023-04-04T06:23:06.779Z,4.50
2023-04-04T06:25:37.755Z,4.70
2023-04-04T06:28:08.039Z,4.10
2023-04-04T06:30:38.106Z,4.70
2023-04-04T06:33:08.298Z,5.70
2023-04-04T06:35:41.651Z,5.30
2023-04-04T06:38:10.221Z,5.40
2023-04-04T06:40:39.396Z,5.60
2023-04-04T06:43:08.598Z,5.70
2023-04-04T06:45:46.655Z,5.20
2023-04-04T06:48:15.379Z,4.90
2023-04-04T06:50:43.420Z,4.90
2023-04-04T06:53:14.948Z,5.60
2023-04-04T06:55:43.340Z,4.90
2023-04-04T06:58:11.243Z,6.90
2023-04-04T07:00:39.769Z,6.90
2023-04-04T07:03:09.530Z,6.50
2023-04-04T07:05:40.690Z,5.40
2023-04-04T07:08:09.488Z,5.50
2023-04-04T07:10:39.622Z,5.30
2023-04-04T07:13:09.821Z,5.60
2023-04-04T07:15:38.908Z,4.60
2023-04-04T07:18:07.842Z,6.00
2023-04-04T07:20:36.709Z,5.50
2023-04-04T07:23:05.015Z,5.10
2023-04-04T07:25:33.122Z,4.50
2023-04-04T07:28:11.749Z,4.30
2023-04-04T07:30:42.682Z,4.00
2023-04-04T07:33:12.000Z,4.10
2023-04-04T07:35:40.567Z,4.20
2023-04-04T07:38:17.651Z,4.50
2023-04-04T07:40:46.541Z,4.00
2023-04-04T07:43:14.458Z,4.30
2023-04-04T07:45:43.807Z,4.00
2023-04-04T07:48:12.914Z,4.10
2023-04-04T07:50:42.917Z,3.50
2023-04-04T07:53:12.024Z,3.80
2023-04-04T07:55:40.596Z,3.60
2023-04-04T07:58:09.072Z,4.00
2023-04-04T08:00:37.444Z,4.90
2023-04-04T08:03:25.846Z,4.40
2023-04-04T08:05:55.817Z,9.70
2023-04-04T08:08:24.098Z,5.80
2023-04-04T08:10:55.757Z,4.00
2023-04-04T08:13:25.070Z,3.20
2023-04-04T08:15:53.134Z,3.20
2023-04-04T08:18:21.604Z,3.60
2023-04-04T08:20:49.682Z,4.40
2023-04-04T08:23:17.847Z,3.80
2023-04-04T08:25:47.007Z,3.70
2023-04-04T08:28:15.717Z,3.60
2023-04-04T08:30:48.411Z,3.00
2023-04-04T08:33:21.724Z,2.90
2023-04-04T08:35:50.722Z,5.50
2023-04-04T08:38:20.628Z,8.20
2023-04-04T08:40:49.508Z,19.70
2023-04-04T08:43:17.998Z,9.60
2023-04-04T08:45:46.294Z,15.70
2023-04-04T08:48:15.577Z,9.70
2023-04-04T08:50:43.835Z,5.30
2023-04-04T08:53:12.703Z,4.70
2023-04-04T08:55:40.998Z,3.30
2023-04-04T08:58:09.456Z,2.90
2023-04-04T09:00:40.892Z,2.90
2023-04-04T09:05:43.983Z,3.70
2023-04-04T09:08:13.018Z,3.60
2023-04-04T09:10:44.288Z,3.10
2023-04-04T09:13:16.145Z,3.90
2023-04-04T09:15:52.138Z,2.50
2023-04-04T09:18:21.782Z,2.70
2023-04-04T09:20:50.113Z,3.00
2023-04-04T09:23:20.896Z,2.80
2023-04-04T09:26:03.364Z,2.30
2023-04-04T09:28:34.442Z,2.20
2023-04-04T09:31:04.841Z,2.70
2023-04-04T09:33:33.639Z,3.30
2023-04-04T09:36:10.481Z,3.00
2023-04-04T09:38:45.453Z,2.50
2023-04-04T09:41:15.202Z,5.30
2023-04-04T09:43:45.083Z,4.00
2023-04-04T09:46:13.153Z,2.60
2023-04-04T09:48:41.799Z,2.40
2023-04-04T09:51:12.698Z,2.50
2023-04-04T09:53:44.592Z,2.60
2023-04-04T09:56:12.864Z,2.60
2023-04-04T09:58:49.275Z,2.60
2023-04-04T10:01:21.064Z,2.80
2023-04-04T10:03:54.511Z,2.70
2023-04-04T10:06:23.059Z,2.80
2023-04-04T10:08:52.732Z,2.40
2023-04-04T10:11:34.192Z,2.40
2023-04-04T10:14:04.234Z,2.70
2023-04-04T10:16:34.552Z,2.20
2023-04-04T10:19:03.375Z,2.30
2023-04-04T10:21:34.054Z,2.60
2023-04-04T10:24:03.456Z,2.50
2023-04-04T10:26:31.410Z,3.50
2023-04-04T10:29:00.545Z,4.20
2023-04-04T10:31:28.697Z,3.10
2023-04-04T10:34:12.556Z,3.20
2023-04-04T10:36:49.044Z,2.90
2023-04-04T10:39:27.544Z,4.30
2023-04-04T10:41:56.459Z,2.80
2023-04-04T10:44:37.209Z,2.60
2023-04-04T10:47:09.558Z,3.00
2023-04-04T10:49:38.425Z,3.30
2023-04-04T10:52:07.641Z,3.20
2023-04-04T10:54:35.787Z,3.40
2023-04-04T10:57:04.666Z,3.20
2023-04-04T10:59:33.261Z,3.30
2023-04-04T11:02:02.942Z,3.20
2023-04-04T11:04:35.186Z,3.00
2023-04-04T11:07:10.987Z,3.00
2023-04-04T11:09:51.993Z,4.10
2023-04-04T11:12:31.652Z,4.40
2023-04-04T11:15:04.214Z,4.20
2023-04-04T11:17:54.873Z,4.50
2023-04-04T11:20:25.056Z,4.70
2023-04-04T11:23:03.855Z,3.50
2023-04-04T11:25:35.135Z,3.20
2023-04-04T11:28:12.818Z,2.80
2023-04-04T11:30:48.280Z,2.90
2023-04-04T11:33:27.819Z,3.80
2023-04-04T11:35:59.075Z,3.00
2023-04-04T11:38:29.502Z,3.70
2023-04-04T11:40:58.123Z,6.70
2023-04-04T11:43:29.913Z,8.80
2023-04-04T11:46:06.981Z,5.40
2023-04-04T11:48:36.212Z,4.60
2023-04-04T11:51:04.678Z,4.20
2023-04-04T11:53:33.364Z,2.90
2023-04-04T11:56:01.877Z,2.90
2023-04-04T11:58:30.229Z,3.50
2023-04-04T12:00:58.714Z,2.90
2023-04-04T12:03:30.103Z,2.80
2023-04-04T12:07:09.873Z,4.20
2023-04-04T12:09:39.011Z,6.30
2023-04-04T12:12:07.736Z,3.30
2023-04-04T12:14:40.274Z,3.10
2023-04-04T12:17:08.901Z,3.30
2023-04-04T12:19:40.392Z,2.80
2023-04-04T12:22:08.617Z,2.60
2023-04-04T12:24:37.947Z,3.30
2023-04-04T12:27:06.369Z,3.10
2023-04-04T12:29:37.714Z,2.90
2023-04-04T12:34:35.360Z,3.10
2023-04-04T12:37:04.525Z,3.40
2023-04-04T12:39:33.084Z,2.70
2023-04-04T12:42:04.038Z,2.70
2023-04-04T12:47:05.006Z,7.20
2023-04-04T12:49:41.433Z,4.10
2023-04-04T12:52:22.832Z,3.70
2023-04-04T12:55:06.841Z,2.80
2023-04-04T12:57:39.532Z,2.70
2023-04-04T13:02:58.533Z,3.70
2023-04-04T13:05:26.608Z,3.30
2023-04-04T13:08:08.682Z,3.40
2023-04-04T13:10:59.365Z,3.00
